sensor_id;sensor_type;location;lat;lon;timestamp;pressure;altitude;pressure_sealevel;temperature;humidity
47811;BME280;33575;52.600;7.318;2023-01-06T00:01:14;101484.01;;;10.13;100.00
47811;BME280;33575;52.600;7.318;2023-01-06T00:03:43;101479.01;;;10.07;100.00
47811;BME280;33575;52.600;7.318;2023-01-06T00:06:13;101476.86;;;10.10;100.00
47811;BME280;33575;52.600;7.318;2023-01-06T00:08:43;101477.28;;;10.10;100.00
47811;BME280;33575;52.600;7.318;2023-01-06T00:11:14;101478.36;;;10.10;100.00
47811;BME280;33575;52.600;7.318;2023-01-06T00:13:44;101482.33;;;10.08;100.00
47811;BME280;33575;52.600;7.318;2023-01-06T00:16:17;101476.60;;;9.98;100.00
47811;BME280;33575;52.600;7.318;2023-01-06T00:18:46;101473.55;;;10.03;100.00
47811;BME280;33575;52.600;7.318;2023-01-06T00:21:16;101470.66;;;9.96;100.00
47811;BME280;33575;52.600;7.318;2023-01-06T00:23:46;101467.73;;;9.98;100.00
47811;BME280;33575;52.600;7.318;2023-01-06T00:26:16;101463.82;;;9.96;100.00
47811;BME280;33575;52.600;7.318;2023-01-06T00:28:47;101460.66;;;9.95;100.00
47811;BME280;33575;52.600;7.318;2023-01-06T00:31:17;101460.18;;;9.93;100.00
47811;BME280;33575;52.600;7.318;2023-01-06T00:33:47;101454.04;;;9.97;100.00
47811;BME280;33575;52.600;7.318;2023-01-06T00:36:17;101455.35;;;9.91;100.00
47811;BME280;33575;52.600;7.318;2023-01-06T00:38:49;101455.64;;;9.92;100.00
47811;BME280;33575;52.600;7.318;2023-01-06T00:41:18;101456.01;;;9.92;100.00
47811;BME280;33575;52.600;7.318;2023-01-06T00:43:48;101452.86;;;9.82;100.00
47811;BME280;33575;52.600;7.318;2023-01-06T00:46:19;101459.44;;;9.92;100.00
47811;BME280;33575;52.600;7.318;2023-01-06T00:48:55;101456.23;;;9.86;100.00
47811;BME280;33575;52.600;7.318;2023-01-06T00:51:21;101453.54;;;9.80;100.00
47811;BME280;33575;52.600;7.318;2023-01-06T00:53:51;101452.02;;;9.87;100.00
47811;BME280;33575;52.600;7.318;2023-01-06T00:56:22;101446.75;;;9.86;100.00
47811;BME280;33575;52.600;7.318;2023-01-06T00:58:52;101452.08;;;9.83;100.00
47811;BME280;33575;52.600;7.318;2023-01-06T01:01:22;101450.05;;;9.77;100.00
47811;BME280;33575;52.600;7.318;2023-01-06T01:03:53;101450.03;;;9.78;100.00
47811;BME280;33575;52.600;7.318;2023-01-06T01:06:24;101448.97;;;9.84;100.00
47811;BME280;33575;52.600;7.318;2023-01-06T01:08:56;101451.70;;;9.94;100.00
47811;BME280;33575;52.600;7.318;2023-01-06T01:11:26;101452.39;;;10.02;100.00
47811;BME280;33575;52.600;7.318;2023-01-06T01:13:55;101451.87;;;10.06;100.00
47811;BME280;33575;52.600;7.318;2023-01-06T01:16:26;101452.14;;;9.99;99.86
47811;BME280;33575;52.600;7.318;2023-01-06T01:18:56;101448.27;;;9.86;100.00
47811;BME280;33575;52.600;7.318;2023-01-06T01:21:26;101450.43;;;9.88;100.00
47811;BME280;33575;52.600;7.318;2023-01-06T01:23:57;101446.08;;;9.84;100.00
47811;BME280;33575;52.600;7.318;2023-01-06T01:26:27;101445.13;;;9.86;100.00
47811;BME280;33575;52.600;7.318;2023-01-06T01:28:57;101443.69;;;9.75;100.00
47811;BME280;33575;52.600;7.318;2023-01-06T01:31:28;101447.61;;;9.94;99.76
47811;BME280;33575;52.600;7.318;2023-01-06T01:33:58;101448.93;;;9.80;100.00
47811;BME280;33575;52.600;7.318;2023-01-06T01:36:29;101440.89;;;9.73;99.34
47811;BME280;33575;52.600;7.318;2023-01-06T01:39:00;101437.34;;;9.68;100.00
47811;BME280;33575;52.600;7.318;2023-01-06T01:41:30;101433.22;;;9.66;100.00
47811;BME280;33575;52.600;7.318;2023-01-06T01:44:02;101429.34;;;9.59;100.00
47811;BME280;33575;52.600;7.318;2023-01-06T01:46:33;101427.18;;;9.53;100.00
47811;BME280;33575;52.600;7.318;2023-01-06T01:49:04;101429.13;;;9.51;100.00
47811;BME280;33575;52.600;7.318;2023-01-06T01:51:38;101429.02;;;9.44;100.00
47811;BME280;33575;52.600;7.318;2023-01-06T01:54:06;101426.19;;;9.52;100.00
47811;BME280;33575;52.600;7.318;2023-01-06T01:56:34;101423.71;;;9.49;100.00
47811;BME280;33575;52.600;7.318;2023-01-06T01:59:06;101418.88;;;9.59;100.00
47811;BME280;33575;52.600;7.318;2023-01-06T02:01:34;101415.45;;;9.54;100.00
47811;BME280;33575;52.600;7.318;2023-01-06T02:04:05;101413.40;;;9.62;100.00
47811;BME280;33575;52.600;7.318;2023-01-06T02:06:35;101410.00;;;9.58;100.00
47811;BME280;33575;52.600;7.318;2023-01-06T02:09:09;101409.14;;;9.63;100.00
47811;BME280;33575;52.600;7.318;2023-01-06T02:11:37;101411.10;;;9.63;100.00
47811;BME280;33575;52.600;7.318;2023-01-06T02:14:10;101407.90;;;9.53;98.13
47811;BME280;33575;52.600;7.318;2023-01-06T02:16:45;101406.82;;;9.57;100.00
47811;BME280;33575;52.600;7.318;2023-01-06T02:19:16;101406.68;;;9.59;99.96
47811;BME280;33575;52.600;7.318;2023-01-06T02:21:51;101409.47;;;9.59;99.26
47811;BME280;33575;52.600;7.318;2023-01-06T02:29:25;101411.95;;;9.61;100.00
47811;BME280;33575;52.600;7.318;2023-01-06T02:31:52;101409.60;;;9.62;100.00
47811;BME280;33575;52.600;7.318;2023-01-06T02:34:18;101406.09;;;9.65;100.00
47811;BME280;33575;52.600;7.318;2023-01-06T02:36:44;101405.87;;;9.53;98.85
47811;BME280;33575;52.600;7.318;2023-01-06T02:39:20;101403.64;;;9.53;100.00
47811;BME280;33575;52.600;7.318;2023-01-06T02:41:45;101400.19;;;9.49;100.00
47811;BME280;33575;52.600;7.318;2023-01-06T02:44:18;101400.56;;;9.44;100.00
47811;BME280;33575;52.600;7.318;2023-01-06T02:46:55;101392.26;;;9.40;100.00
47811;BME280;33575;52.600;7.318;2023-01-06T02:49:19;101384.99;;;9.57;100.00
47811;BME280;33575;52.600;7.318;2023-01-06T02:51:48;101379.85;;;9.66;100.00
47811;BME280;33575;52.600;7.318;2023-01-06T02:54:19;101373.40;;;9.65;100.00
47811;BME280;33575;52.600;7.318;2023-01-06T02:56:49;101372.01;;;9.60;100.00
47811;BME280;33575;52.600;7.318;2023-01-06T02:59:21;101372.49;;;9.56;100.00
47811;BME280;33575;52.600;7.318;2023-01-06T03:01:47;101370.62;;;9.54;100.00
47811;BME280;33575;52.600;7.318;2023-01-06T03:04:19;101364.80;;;9.51;100.00
47811;BME280;33575;52.600;7.318;2023-01-06T03:06:47;101370.63;;;9.51;100.00
47811;BME280;33575;52.600;7.318;2023-01-06T03:09:19;101360.35;;;9.33;100.00
47811;BME280;33575;52.600;7.318;2023-01-06T03:11:49;101356.83;;;9.48;100.00
47811;BME280;33575;52.600;7.318;2023-01-06T03:14:22;101353.35;;;9.49;100.00
47811;BME280;33575;52.600;7.318;2023-01-06T03:16:47;101351.91;;;9.50;100.00
47811;BME280;33575;52.600;7.318;2023-01-06T03:19:17;101346.53;;;9.51;100.00
47811;BME280;33575;52.600;7.318;2023-01-06T03:21:49;101347.13;;;9.37;100.00
47811;BME280;33575;52.600;7.318;2023-01-06T03:24:18;101352.72;;;9.48;100.00
47811;BME280;33575;52.600;7.318;2023-01-06T03:26:48;101349.68;;;9.49;100.00
47811;BME280;33575;52.600;7.318;2023-01-06T03:29:20;101344.37;;;9.36;100.00
47811;BME280;33575;52.600;7.318;2023-01-06T03:31:57;101345.05;;;9.50;100.00
47811;BME280;33575;52.600;7.318;2023-01-06T03:34:25;101339.07;;;9.48;100.00
47811;BME280;33575;52.600;7.318;2023-01-06T03:36:55;101326.26;;;9.56;100.00
47811;BME280;33575;52.600;7.318;2023-01-06T03:39:27;101321.34;;;9.48;100.00
47811;BME280;33575;52.600;7.318;2023-01-06T03:41:59;101324.56;;;9.46;99.29
47811;BME280;33575;52.600;7.318;2023-01-06T03:44:30;101320.01;;;9.32;100.00
47811;BME280;33575;52.600;7.318;2023-01-06T03:46:59;101318.33;;;9.44;100.00
47811;BME280;33575;52.600;7.318;2023-01-06T03:49:27;101315.65;;;9.40;100.00
47811;BME280;33575;52.600;7.318;2023-01-06T03:51:59;101315.38;;;9.48;100.00
47811;BME280;33575;52.600;7.318;2023-01-06T03:54:33;101309.07;;;9.48;100.00
47811;BME280;33575;52.600;7.318;2023-01-06T03:57:02;101298.48;;;9.46;100.00
47811;BME280;33575;52.600;7.318;2023-01-06T03:59:26;101295.51;;;9.53;100.00
47811;BME280;33575;52.600;7.318;2023-01-06T04:01:56;101289.83;;;9.46;100.00
47811;BME280;33575;52.600;7.318;2023-01-06T04:04:25;101287.31;;;9.57;99.69
47811;BME280;33575;52.600;7.318;2023-01-06T04:06:56;101287.53;;;9.39;100.00
47811;BME280;33575;52.600;7.318;2023-01-06T04:09:26;101265.89;;;9.26;100.00
47811;BME280;33575;52.600;7.318;2023-01-06T04:11:57;101270.20;;;9.41;100.00
47811;BME280;33575;52.600;7.318;2023-01-06T04:14:27;101284.00;;;9.46;100.00
47811;BME280;33575;52.600;7.318;2023-01-06T04:16:57;101285.67;;;9.49;100.00
47811;BME280;33575;52.600;7.318;2023-01-06T04:19:28;101284.91;;;9.69;100.00
47811;BME280;33575;52.600;7.318;2023-01-06T04:21:58;101280.39;;;9.61;100.00
47811;BME280;33575;52.600;7.318;2023-01-06T04:24:29;101266.80;;;9.57;99.67
47811;BME280;33575;52.600;7.318;2023-01-06T04:26:59;101261.05;;;9.59;100.00
47811;BME280;33575;52.600;7.318;2023-01-06T04:29:30;101258.02;;;9.40;100.00
47811;BME280;33575;52.600;7.318;2023-01-06T04:32:00;101252.31;;;9.37;100.00
47811;BME280;33575;52.600;7.318;2023-01-06T04:34:30;101241.49;;;9.42;100.00
47811;BME280;33575;52.600;7.318;2023-01-06T04:37:01;101241.99;;;9.45;98.27
47811;BME280;33575;52.600;7.318;2023-01-06T04:39:32;101246.01;;;9.47;100.00
47811;BME280;33575;52.600;7.318;2023-01-06T04:42:02;101250.70;;;9.40;100.00
47811;BME280;33575;52.600;7.318;2023-01-06T04:44:33;101248.43;;;9.43;99.56
47811;BME280;33575;52.600;7.318;2023-01-06T04:47:04;101259.05;;;9.41;100.00
47811;BME280;33575;52.600;7.318;2023-01-06T04:49:34;101261.77;;;9.40;100.00
47811;BME280;33575;52.600;7.318;2023-01-06T04:52:04;101255.24;;;9.46;100.00
47811;BME280;33575;52.600;7.318;2023-01-06T04:54:35;101245.71;;;9.44;99.36
47811;BME280;33575;52.600;7.318;2023-01-06T04:57:05;101232.18;;;9.39;100.00
47811;BME280;33575;52.600;7.318;2023-01-06T04:59:36;101226.31;;;9.41;100.00
47811;BME280;33575;52.600;7.318;2023-01-06T05:02:07;101225.42;;;9.27;100.00
47811;BME280;33575;52.600;7.318;2023-01-06T05:04:42;101212.29;;;9.39;100.00
47811;BME280;33575;52.600;7.318;2023-01-06T05:07:08;101216.97;;;9.37;100.00
47811;BME280;33575;52.600;7.318;2023-01-06T05:09:38;101207.41;;;9.34;100.00
47811;BME280;33575;52.600;7.318;2023-01-06T05:12:09;101208.67;;;9.40;100.00
47811;BME280;33575;52.600;7.318;2023-01-06T05:14:39;101199.25;;;9.29;100.00
47811;BME280;33575;52.600;7.318;2023-01-06T05:17:10;101201.43;;;9.30;100.00
47811;BME280;33575;52.600;7.318;2023-01-06T05:19:40;101204.50;;;9.34;100.00
47811;BME280;33575;52.600;7.318;2023-01-06T05:22:11;101190.18;;;9.28;100.00
47811;BME280;33575;52.600;7.318;2023-01-06T05:24:42;101197.52;;;9.38;100.00
47811;BME280;33575;52.600;7.318;2023-01-06T05:27:12;101198.60;;;9.39;99.89
47811;BME280;33575;52.600;7.318;2023-01-06T05:29:43;101188.22;;;9.38;100.00
47811;BME280;33575;52.600;7.318;2023-01-06T05:32:13;101199.13;;;9.33;100.00
47811;BME280;33575;52.600;7.318;2023-01-06T05:34:44;101189.58;;;9.48;100.00
47811;BME280;33575;52.600;7.318;2023-01-06T05:37:14;101187.85;;;9.53;100.00
47811;BME280;33575;52.600;7.318;2023-01-06T05:39:45;101185.00;;;9.50;100.00
47811;BME280;33575;52.600;7.318;2023-01-06T05:42:16;101176.45;;;9.47;99.87
47811;BME280;33575;52.600;7.318;2023-01-06T05:44:46;101175.58;;;9.39;99.75
47811;BME280;33575;52.600;7.318;2023-01-06T05:47:17;101172.16;;;9.48;99.34
47811;BME280;33575;52.600;7.318;2023-01-06T05:49:48;101169.57;;;9.50;99.61
47811;BME280;33575;52.600;7.318;2023-01-06T05:52:17;101171.19;;;9.51;98.58
47811;BME280;33575;52.600;7.318;2023-01-06T05:54:48;101167.14;;;9.26;99.87
47811;BME280;33575;52.600;7.318;2023-01-06T05:57:18;101177.18;;;9.41;99.00
47811;BME280;33575;52.600;7.318;2023-01-06T05:59:49;101173.18;;;9.36;99.80
47811;BME280;33575;52.600;7.318;2023-01-06T06:02:19;101163.76;;;9.30;99.76
47811;BME280;33575;52.600;7.318;2023-01-06T06:04:50;101164.97;;;9.35;99.84
47811;BME280;33575;52.600;7.318;2023-01-06T06:07:20;101158.03;;;9.23;99.58
47811;BME280;33575;52.600;7.318;2023-01-06T06:09:51;101173.23;;;9.35;99.08
47811;BME280;33575;52.600;7.318;2023-01-06T06:12:22;101174.31;;;9.37;98.25
47811;BME280;33575;52.600;7.318;2023-01-06T06:14:52;101175.86;;;9.27;99.99
47811;BME280;33575;52.600;7.318;2023-01-06T06:17:23;101172.45;;;9.28;99.09
47811;BME280;33575;52.600;7.318;2023-01-06T06:19:53;101170.53;;;9.36;99.03
47811;BME280;33575;52.600;7.318;2023-01-06T06:22:23;101158.45;;;9.31;98.56
47811;BME280;33575;52.600;7.318;2023-01-06T06:24:54;101155.88;;;9.26;99.13
47811;BME280;33575;52.600;7.318;2023-01-06T06:27:24;101153.46;;;9.19;100.00
47811;BME280;33575;52.600;7.318;2023-01-06T06:29:55;101155.66;;;9.29;99.27
47811;BME280;33575;52.600;7.318;2023-01-06T06:32:29;101155.25;;;9.35;98.78
47811;BME280;33575;52.600;7.318;2023-01-06T06:34:56;101158.00;;;9.26;98.16
47811;BME280;33575;52.600;7.318;2023-01-06T06:37:27;101156.16;;;9.22;99.77
47811;BME280;33575;52.600;7.318;2023-01-06T06:39:57;101152.48;;;9.15;99.63
47811;BME280;33575;52.600;7.318;2023-01-06T06:42:28;101151.07;;;9.24;100.00
47811;BME280;33575;52.600;7.318;2023-01-06T06:44:58;101140.31;;;9.16;99.45
47811;BME280;33575;52.600;7.318;2023-01-06T06:47:29;101139.10;;;9.23;99.53
47811;BME280;33575;52.600;7.318;2023-01-06T06:49:59;101132.87;;;9.18;100.00
47811;BME280;33575;52.600;7.318;2023-01-06T06:52:30;101137.05;;;9.32;99.44
47811;BME280;33575;52.600;7.318;2023-01-06T06:55:00;101138.29;;;9.23;100.00
47811;BME280;33575;52.600;7.318;2023-01-06T06:57:31;101132.24;;;9.43;99.74
47811;BME280;33575;52.600;7.318;2023-01-06T07:00:03;101142.39;;;9.36;100.00
47811;BME280;33575;52.600;7.318;2023-01-06T07:02:32;101136.96;;;9.45;100.00
47811;BME280;33575;52.600;7.318;2023-01-06T07:05:03;101131.82;;;9.42;99.31
47811;BME280;33575;52.600;7.318;2023-01-06T07:07:33;101128.06;;;9.30;100.00
47811;BME280;33575;52.600;7.318;2023-01-06T07:10:04;101124.78;;;9.25;99.85
47811;BME280;33575;52.600;7.318;2023-01-06T07:12:34;101127.22;;;9.20;100.00
47811;BME280;33575;52.600;7.318;2023-01-06T07:15:06;101125.78;;;9.24;100.00
47811;BME280;33575;52.600;7.318;2023-01-06T07:17:35;101121.12;;;9.18;100.00
47811;BME280;33575;52.600;7.318;2023-01-06T07:20:07;101121.03;;;9.06;100.00
47811;BME280;33575;52.600;7.318;2023-01-06T07:22:37;101123.10;;;9.12;100.00
47811;BME280;33575;52.600;7.318;2023-01-06T07:25:08;101131.22;;;9.11;100.00
47811;BME280;33575;52.600;7.318;2023-01-06T07:27:37;101130.04;;;9.07;100.00
47811;BME280;33575;52.600;7.318;2023-01-06T07:30:09;101130.83;;;9.11;100.00
47811;BME280;33575;52.600;7.318;2023-01-06T07:32:39;101120.16;;;9.00;100.00
47811;BME280;33575;52.600;7.318;2023-01-06T07:35:09;101128.92;;;9.10;100.00
47811;BME280;33575;52.600;7.318;2023-01-06T07:37:40;101130.15;;;9.13;100.00
47811;BME280;33575;52.600;7.318;2023-01-06T07:40:11;101133.93;;;9.04;100.00
47811;BME280;33575;52.600;7.318;2023-01-06T07:42:41;101131.56;;;9.07;100.00
47811;BME280;33575;52.600;7.318;2023-01-06T07:45:12;101132.91;;;9.12;100.00
47811;BME280;33575;52.600;7.318;2023-01-06T07:47:42;101144.91;;;9.13;100.00
47811;BME280;33575;52.600;7.318;2023-01-06T07:50:13;101146.73;;;8.96;100.00
47811;BME280;33575;52.600;7.318;2023-01-06T07:52:43;101156.64;;;9.13;100.00
47811;BME280;33575;52.600;7.318;2023-01-06T07:55:14;101152.04;;;9.18;100.00
47811;BME280;33575;52.600;7.318;2023-01-06T07:57:44;101157.49;;;9.11;100.00
47811;BME280;33575;52.600;7.318;2023-01-06T08:00:15;101152.13;;;9.01;100.00
47811;BME280;33575;52.600;7.318;2023-01-06T08:02:45;101160.49;;;8.98;100.00
47811;BME280;33575;52.600;7.318;2023-01-06T08:05:16;101155.90;;;9.02;100.00
47811;BME280;33575;52.600;7.318;2023-01-06T08:07:47;101172.07;;;9.09;100.00
47811;BME280;33575;52.600;7.318;2023-01-06T08:10:17;101163.55;;;9.08;100.00
47811;BME280;33575;52.600;7.318;2023-01-06T08:12:47;101160.37;;;9.10;100.00
47811;BME280;33575;52.600;7.318;2023-01-06T08:15:18;101166.45;;;9.12;100.00
47811;BME280;33575;52.600;7.318;2023-01-06T08:17:51;101163.37;;;9.14;100.00
47811;BME280;33575;52.600;7.318;2023-01-06T08:20:19;101178.43;;;9.14;100.00
47811;BME280;33575;52.600;7.318;2023-01-06T08:22:50;101179.21;;;9.12;100.00
47811;BME280;33575;52.600;7.318;2023-01-06T08:25:20;101178.98;;;9.11;100.00
47811;BME280;33575;52.600;7.318;2023-01-06T08:27:51;101180.20;;;9.18;100.00
47811;BME280;33575;52.600;7.318;2023-01-06T08:30:21;101194.19;;;9.24;100.00
47811;BME280;33575;52.600;7.318;2023-01-06T08:32:55;101201.98;;;9.26;100.00
47811;BME280;33575;52.600;7.318;2023-01-06T08:35:22;101200.73;;;9.23;100.00
47811;BME280;33575;52.600;7.318;2023-01-06T08:37:53;101209.39;;;9.21;100.00
47811;BME280;33575;52.600;7.318;2023-01-06T08:40:24;101209.31;;;9.09;100.00
47811;BME280;33575;52.600;7.318;2023-01-06T08:42:54;101214.92;;;9.18;100.00
47811;BME280;33575;52.600;7.318;2023-01-06T08:45:24;101220.99;;;9.20;100.00
47811;BME280;33575;52.600;7.318;2023-01-06T08:47:55;101219.55;;;9.12;100.00
47811;BME280;33575;52.600;7.318;2023-01-06T08:50:28;101229.11;;;9.17;100.00
47811;BME280;33575;52.600;7.318;2023-01-06T08:52:56;101217.79;;;8.97;100.00
47811;BME280;33575;52.600;7.318;2023-01-06T08:55:27;101234.11;;;9.10;100.00
47811;BME280;33575;52.600;7.318;2023-01-06T08:57:57;101235.63;;;9.12;100.00
47811;BME280;33575;52.600;7.318;2023-01-06T09:00:28;101237.21;;;9.01;100.00
47811;BME280;33575;52.600;7.318;2023-01-06T09:02:58;101237.64;;;9.04;100.00
47811;BME280;33575;52.600;7.318;2023-01-06T09:05:29;101240.25;;;9.01;100.00
47811;BME280;33575;52.600;7.318;2023-01-06T09:08:00;101244.60;;;9.08;100.00
47811;BME280;33575;52.600;7.318;2023-01-06T09:10:30;101250.95;;;9.02;100.00
47811;BME280;33575;52.600;7.318;2023-01-06T09:13:00;101256.15;;;9.06;100.00
47811;BME280;33575;52.600;7.318;2023-01-06T09:15:31;101259.82;;;8.98;100.00
47811;BME280;33575;52.600;7.318;2023-01-06T09:18:02;101272.73;;;9.08;100.00
47811;BME280;33575;52.600;7.318;2023-01-06T09:20:32;101277.07;;;9.09;100.00
47811;BME280;33575;52.600;7.318;2023-01-06T09:23:03;101268.41;;;9.19;100.00
47811;BME280;33575;52.600;7.318;2023-01-06T09:25:33;101274.37;;;9.36;100.00
47811;BME280;33575;52.600;7.318;2023-01-06T09:28:04;101281.39;;;9.40;100.00
47811;BME280;33575;52.600;7.318;2023-01-06T09:30:35;101292.02;;;9.42;100.00
47811;BME280;33575;52.600;7.318;2023-01-06T09:33:05;101297.07;;;9.42;100.00
47811;BME280;33575;52.600;7.318;2023-01-06T09:35:36;101304.90;;;9.50;100.00
47811;BME280;33575;52.600;7.318;2023-01-06T09:38:06;101312.39;;;9.48;100.00
47811;BME280;33575;52.600;7.318;2023-01-06T09:40:46;101316.17;;;9.34;100.00
47811;BME280;33575;52.600;7.318;2023-01-06T09:43:13;101327.82;;;9.33;100.00
47811;BME280;33575;52.600;7.318;2023-01-06T09:45:42;101335.06;;;9.31;100.00
47811;BME280;33575;52.600;7.318;2023-01-06T09:48:14;101332.17;;;9.18;100.00
47811;BME280;33575;52.600;7.318;2023-01-06T09:50:41;101338.76;;;9.25;100.00
47811;BME280;33575;52.600;7.318;2023-01-06T09:53:14;101344.64;;;9.27;100.00
47811;BME280;33575;52.600;7.318;2023-01-06T09:55:43;101350.12;;;9.30;99.59
47811;BME280;33575;52.600;7.318;2023-01-06T09:58:13;101351.79;;;9.27;99.12
47811;BME280;33575;52.600;7.318;2023-01-06T10:00:44;101350.15;;;9.32;99.00
47811;BME280;33575;52.600;7.318;2023-01-06T10:03:13;101356.33;;;9.08;99.40
47811;BME280;33575;52.600;7.318;2023-01-06T10:05:51;101351.05;;;9.08;100.00
47811;BME280;33575;52.600;7.318;2023-01-06T10:08:16;101345.62;;;9.06;99.82
47811;BME280;33575;52.600;7.318;2023-01-06T10:10:49;101349.41;;;9.14;99.49
47811;BME280;33575;52.600;7.318;2023-01-06T10:13:25;101350.92;;;9.17;98.38
47811;BME280;33575;52.600;7.318;2023-01-06T10:15:49;101358.19;;;9.27;98.60
47811;BME280;33575;52.600;7.318;2023-01-06T10:18:25;101358.04;;;9.28;98.26
47811;BME280;33575;52.600;7.318;2023-01-06T10:20:56;101371.27;;;9.33;98.14
47811;BME280;33575;52.600;7.318;2023-01-06T10:23:27;101373.27;;;9.04;98.29
47811;BME280;33575;52.600;7.318;2023-01-06T10:25:51;101380.32;;;9.03;97.63
47811;BME280;33575;52.600;7.318;2023-01-06T10:28:23;101383.03;;;9.03;98.24
47811;BME280;33575;52.600;7.318;2023-01-06T10:30:49;101390.07;;;9.26;97.37
47811;BME280;33575;52.600;7.318;2023-01-06T10:33:22;101399.18;;;9.32;97.19
47811;BME280;33575;52.600;7.318;2023-01-06T10:35:48;101400.50;;;9.23;97.54
47811;BME280;33575;52.600;7.318;2023-01-06T10:38:23;101397.54;;;9.28;96.01
47811;BME280;33575;52.600;7.318;2023-01-06T10:40:50;101390.37;;;9.33;96.19
47811;BME280;33575;52.600;7.318;2023-01-06T10:43:20;101397.33;;;9.25;96.51
47811;BME280;33575;52.600;7.318;2023-01-06T10:45:50;101398.16;;;9.45;96.44
47811;BME280;33575;52.600;7.318;2023-01-06T10:48:24;101393.41;;;9.56;95.90
47811;BME280;33575;52.600;7.318;2023-01-06T10:50:52;101395.04;;;9.42;94.25
47811;BME280;33575;52.600;7.318;2023-01-06T10:53:22;101396.65;;;9.52;94.37
47811;BME280;33575;52.600;7.318;2023-01-06T10:55:53;101396.75;;;9.47;93.75
47811;BME280;33575;52.600;7.318;2023-01-06T10:58:30;101387.35;;;9.13;92.89
47811;BME280;33575;52.600;7.318;2023-01-06T11:00:56;101390.33;;;9.35;92.08
47811;BME280;33575;52.600;7.318;2023-01-06T11:03:29;101390.71;;;9.19;92.31
47811;BME280;33575;52.600;7.318;2023-01-06T11:06:04;101388.15;;;9.24;93.42
47811;BME280;33575;52.600;7.318;2023-01-06T11:08:26;101387.63;;;9.34;92.99
47811;BME280;33575;52.600;7.318;2023-01-06T11:10:56;101394.63;;;9.44;92.83
47811;BME280;33575;52.600;7.318;2023-01-06T11:13:30;101398.79;;;9.37;92.68
47811;BME280;33575;52.600;7.318;2023-01-06T11:15:58;101389.86;;;9.33;92.96
47811;BME280;33575;52.600;7.318;2023-01-06T11:18:29;101391.14;;;9.31;92.93
47811;BME280;33575;52.600;7.318;2023-01-06T11:21:05;101389.04;;;9.31;92.34
47811;BME280;33575;52.600;7.318;2023-01-06T11:23:28;101388.42;;;9.20;92.81
47811;BME280;33575;52.600;7.318;2023-01-06T11:26:01;101397.21;;;9.34;92.87
47811;BME280;33575;52.600;7.318;2023-01-06T11:28:29;101398.51;;;9.36;92.86
47811;BME280;33575;52.600;7.318;2023-01-06T11:31:06;101392.49;;;9.41;92.07
47811;BME280;33575;52.600;7.318;2023-01-06T11:33:32;101396.50;;;9.24;92.98
47811;BME280;33575;52.600;7.318;2023-01-06T11:36:07;101390.47;;;9.28;93.98
47811;BME280;33575;52.600;7.318;2023-01-06T11:38:40;101390.46;;;9.42;93.03
47811;BME280;33575;52.600;7.318;2023-01-06T11:41:07;101392.84;;;9.49;92.88
47811;BME280;33575;52.600;7.318;2023-01-06T11:43:32;101394.43;;;9.49;92.76
47811;BME280;33575;52.600;7.318;2023-01-06T11:46:05;101384.28;;;9.51;91.61
47811;BME280;33575;52.600;7.318;2023-01-06T11:48:35;101388.33;;;9.55;92.14
47811;BME280;33575;52.600;7.318;2023-01-06T11:51:06;101389.53;;;9.49;92.33
47811;BME280;33575;52.600;7.318;2023-01-06T11:53:36;101386.96;;;9.49;91.88
47811;BME280;33575;52.600;7.318;2023-01-06T11:56:15;101383.96;;;9.57;92.39
47811;BME280;33575;52.600;7.318;2023-01-06T11:58:45;101379.61;;;9.48;91.24
47811;BME280;33575;52.600;7.318;2023-01-06T12:01:12;101376.08;;;9.54;91.40
47811;BME280;33575;52.600;7.318;2023-01-06T12:03:39;101379.26;;;9.41;91.31
47811;BME280;33575;52.600;7.318;2023-01-06T12:06:15;101384.25;;;9.45;91.62
47811;BME280;33575;52.600;7.318;2023-01-06T12:08:43;101383.78;;;9.50;90.94
47811;BME280;33575;52.600;7.318;2023-01-06T12:11:13;101385.00;;;9.48;90.52
47811;BME280;33575;52.600;7.318;2023-01-06T12:13:44;101385.79;;;9.55;90.41
47811;BME280;33575;52.600;7.318;2023-01-06T12:16:14;101384.40;;;9.51;90.86
47811;BME280;33575;52.600;7.318;2023-01-06T12:18:41;101388.06;;;9.53;90.19
47811;BME280;33575;52.600;7.318;2023-01-06T12:21:14;101391.61;;;9.60;90.25
47811;BME280;33575;52.600;7.318;2023-01-06T12:23:43;101394.06;;;9.60;90.77
47811;BME280;33575;52.600;7.318;2023-01-06T12:26:15;101395.71;;;9.68;89.40
47811;BME280;33575;52.600;7.318;2023-01-06T12:28:44;101391.94;;;9.34;89.68
47811;BME280;33575;52.600;7.318;2023-01-06T12:31:17;101395.96;;;9.56;89.67
47811;BME280;33575;52.600;7.318;2023-01-06T12:33:48;101391.10;;;9.49;88.88
47811;BME280;33575;52.600;7.318;2023-01-06T12:36:17;101392.88;;;9.52;88.86
47811;BME280;33575;52.600;7.318;2023-01-06T12:38:51;101394.98;;;9.51;89.27
47811;BME280;33575;52.600;7.318;2023-01-06T12:41:18;101398.52;;;9.41;89.12
47811;BME280;33575;52.600;7.318;2023-01-06T12:43:51;101397.73;;;9.37;89.22
47811;BME280;33575;52.600;7.318;2023-01-06T12:46:18;101397.98;;;9.42;89.70
47811;BME280;33575;52.600;7.318;2023-01-06T12:48:49;101396.80;;;9.46;89.75
47811;BME280;33575;52.600;7.318;2023-01-06T12:51:20;101392.12;;;9.36;89.79
47811;BME280;33575;52.600;7.318;2023-01-06T12:53:51;101393.50;;;9.48;89.97
47811;BME280;33575;52.600;7.318;2023-01-06T12:56:31;101400.21;;;9.27;89.72
47811;BME280;33575;52.600;7.318;2023-01-06T12:58:54;101397.42;;;9.32;89.89
47811;BME280;33575;52.600;7.318;2023-01-06T13:01:23;101397.78;;;9.30;89.73
47811;BME280;33575;52.600;7.318;2023-01-06T13:04:02;101404.49;;;9.32;89.27
47811;BME280;33575;52.600;7.318;2023-01-06T13:06:30;101405.26;;;9.20;89.97
47811;BME280;33575;52.600;7.318;2023-01-06T13:09:01;101403.00;;;9.17;90.50
47811;BME280;33575;52.600;7.318;2023-01-06T13:11:29;101395.87;;;9.18;89.96
47811;BME280;33575;52.600;7.318;2023-01-06T13:13:58;101405.73;;;8.99;90.04